Time;durP1;ratioP1;P1;durP2;ratioP2;P2;SDS_P1;SDS_P2;PMS_P1;PMS_P2;Temp;Humidity;BMP_temperature;BMP_pressure;BME280_temperature;BME280_humidity;BME280_pressure;Samples;Min_cycle;Max_cycle;Signal;HPM_P1;HPM_P2
2023/06/27 00:00:13;;;;;;;19.60;6.00;;;;;;;22.08;75.28;98434.55;67809;1278;1016458;-70
2023/06/27 00:03:36;;;;;;;18.10;6.10;;;;;;;22.12;74.97;98430.71;67766;1278;1016599;-71
2023/06/27 00:06:40;;;;;;;22.80;6.00;;;;;;;22.13;75.51;98429.02;67769;1278;1016330;-63
2023/06/27 00:09:43;;;;;;;20.60;6.20;;;;;;;22.18;74.26;98426.80;67820;1278;1016467;-71
2023/06/27 00:12:46;;;;;;;18.20;5.60;;;;;;;22.24;75.22;98427.59;67733;1278;1016307;-71
2023/06/27 00:15:53;;;;;;;17.00;5.40;;;;;;;22.28;75.29;98427.77;67785;1278;1016334;-71
2023/06/27 00:18:55;;;;;;;17.90;5.50;;;;;;;22.33;75.27;98427.58;67692;1278;1016134;-71
2023/06/27 00:21:58;;;;;;;17.60;5.00;;;;;;;22.28;76.34;98433.02;67836;1278;1016542;-69
2023/06/27 00:25:01;;;;;;;18.00;5.20;;;;;;;22.06;80.60;98442.89;67789;1278;1016485;-71
2023/06/27 00:28:04;;;;;;;15.80;4.90;;;;;;;21.88;83.62;98443.61;67787;1278;1016495;-71
2023/06/27 00:31:07;;;;;;;16.00;5.00;;;;;;;21.71;85.79;98440.92;67772;1278;1016155;-71
2023/06/27 00:34:10;;;;;;;16.40;5.30;;;;;;;21.62;85.46;98435.33;67734;1278;1016192;-70
2023/06/27 00:37:13;;;;;;;16.10;4.80;;;;;;;21.66;84.88;98433.48;67811;1278;1016466;-71
2023/06/27 00:40:17;;;;;;;16.70;5.20;;;;;;;21.62;85.04;98427.13;67810;1278;1016350;-71
2023/06/27 00:43:19;;;;;;;17.30;5.00;;;;;;;21.62;84.52;98418.09;67760;1278;1016719;-70
2023/06/27 00:46:24;;;;;;;17.60;5.40;;;;;;;21.71;83.66;98413.67;67784;1278;1016524;-71
2023/06/27 00:49:27;;;;;;;17.20;5.30;;;;;;;21.77;83.08;98402.29;67777;1278;1015872;-65
2023/06/27 00:52:31;;;;;;;15.90;5.30;;;;;;;21.92;82.21;98391.20;67821;1278;1016511;-62
2023/06/27 00:55:37;;;;;;;17.00;5.40;;;;;;;21.99;82.74;98393.09;67800;1278;1015908;-70
2023/06/27 00:58:40;;;;;;;17.90;5.40;;;;;;;22.05;82.72;98389.20;67731;1278;1016328;-70
2023/06/27 01:01:45;;;;;;;19.40;5.20;;;;;;;22.11;82.02;98389.90;67758;1278;1016437;-70
2023/06/27 01:04:49;;;;;;;16.70;5.50;;;;;;;22.18;81.71;98391.20;67756;1278;1016373;-68
2023/06/27 01:07:52;;;;;;;16.20;4.90;;;;;;;22.16;82.24;98393.92;67801;1278;1016154;-62
2023/06/27 01:10:56;;;;;;;16.70;5.30;;;;;;;22.10;82.92;98398.52;67813;1278;1016303;-71
2023/06/27 01:13:59;;;;;;;16.40;5.00;;;;;;;22.04;83.61;98400.09;67788;1278;1016153;-70
2023/06/27 01:17:04;;;;;;;17.10;5.60;;;;;;;21.97;84.41;98405.67;67851;1278;1018227;-71
2023/06/27 01:20:07;;;;;;;14.40;5.00;;;;;;;21.87;85.54;98410.15;67836;1278;1017398;-70
2023/06/27 01:23:14;;;;;;;15.30;5.10;;;;;;;21.82;86.39;98405.13;67811;1278;1016463;-71
2023/06/27 01:26:18;;;;;;;15.30;5.30;;;;;;;21.73;87.38;98402.21;67809;1278;1016346;-71
2023/06/27 01:29:21;;;;;;;19.30;5.10;;;;;;;21.65;89.41;98398.66;67817;1278;1016433;-71
2023/06/27 01:32:25;;;;;;;15.20;5.10;;;;;;;21.55;92.29;98396.77;67769;1278;1016424;-71
2023/06/27 01:35:28;;;;;;;19.90;5.10;;;;;;;21.44;93.67;98399.10;67823;1278;1017146;-71
2023/06/27 01:38:32;;;;;;;17.50;5.70;;;;;;;21.36;96.11;98395.68;67845;1278;1016096;-70
2023/06/27 01:41:36;;;;;;;19.20;5.60;;;;;;;21.43;95.16;98389.23;67832;1278;1016146;-70
2023/06/27 01:44:39;;;;;;;18.00;5.90;;;;;;;21.36;99.03;98389.86;67786;1278;1017468;-68
2023/06/27 01:47:43;;;;;;;19.20;5.70;;;;;;;21.29;99.15;98387.22;67739;1278;1018022;-71
2023/06/27 01:50:46;;;;;;;17.00;5.60;;;;;;;21.31;99.94;98387.63;67854;1278;1016458;-71
2023/06/27 01:53:50;;;;;;;19.50;6.10;;;;;;;21.27;100.00;98386.04;67838;1278;1016442;-70
2023/06/27 01:56:54;;;;;;;19.60;6.40;;;;;;;21.30;100.00;98383.29;67757;1260;1017207;-70
2023/06/27 01:59:57;;;;;;;19.10;6.20;;;;;;;21.30;99.97;98382.52;67806;1278;1017226;-70
2023/06/27 02:03:01;;;;;;;21.30;6.50;;;;;;;21.25;100.00;98389.27;67770;1278;1015837;-71
2023/06/27 02:06:06;;;;;;;21.50;6.80;;;;;;;21.22;100.00;98392.28;67778;1278;1016489;-70
2023/06/27 02:09:10;;;;;;;20.30;6.30;;;;;;;21.23;100.00;98389.02;67822;1278;1016501;-68
2023/06/27 02:12:14;;;;;;;18.60;6.20;;;;;;;21.24;100.00;98383.91;67774;1260;1016504;-70
2023/06/27 02:15:20;;;;;;;18.40;6.40;;;;;;;21.33;100.00;98372.95;67845;1278;1016792;-70
2023/06/27 02:18:23;;;;;;;20.70;6.50;;;;;;;21.38;100.00;98363.12;67785;1260;1016507;-70
2023/06/27 02:21:27;;;;;;;22.60;7.10;;;;;;;21.48;100.00;98354.16;67786;1278;1016311;-71
2023/06/27 02:24:31;;;;;;;21.10;8.50;;;;;;;21.60;100.00;98354.21;67823;1278;1016397;-70
2023/06/27 02:27:34;;;;;;;19.70;6.80;;;;;;;21.62;100.00;98362.05;67836;1278;1016218;-70
2023/06/27 02:30:38;;;;;;;21.50;7.90;;;;;;;21.59;100.00;98342.45;67778;1278;1017189;-70
2023/06/27 02:33:41;;;;;;;20.50;6.80;;;;;;;21.55;100.00;98355.58;67806;1278;1016288;-70
2023/06/27 02:36:45;;;;;;;20.30;7.10;;;;;;;21.53;100.00;98361.86;67801;1278;1018740;-70
2023/06/27 02:39:50;;;;;;;19.90;7.30;;;;;;;21.47;100.00;98368.52;67776;1278;1016527;-71
2023/06/27 02:42:53;;;;;;;19.10;7.10;;;;;;;21.47;100.00;98361.74;67798;1278;1016297;-70
2023/06/27 02:45:57;;;;;;;21.10;7.10;;;;;;;21.50;100.00;98362.67;67792;1278;1016128;-70
2023/06/27 02:49:00;;;;;;;20.70;7.10;;;;;;;21.51;100.00;98357.80;67800;1278;1015702;-70
2023/06/27 02:52:04;;;;;;;21.30;8.00;;;;;;;21.47;100.00;98357.13;67784;1278;1016290;-71
2023/06/27 02:55:07;;;;;;;20.30;7.80;;;;;;;21.38;100.00;98357.24;67792;1278;1016228;-71
2023/06/27 02:58:10;;;;;;;20.60;7.00;;;;;;;21.36;100.00;98358.69;67809;1278;1015864;-68
2023/06/27 03:01:14;;;;;;;19.50;6.90;;;;;;;21.36;100.00;98358.39;67798;1278;1017427;-71
2023/06/27 03:04:17;;;;;;;20.30;7.20;;;;;;;21.41;100.00;98361.58;67834;1278;1016404;-70
2023/06/27 03:07:20;;;;;;;20.90;7.30;;;;;;;21.38;100.00;98368.61;67749;1278;1016393;-69
2023/06/27 03:10:22;;;;;;;21.70;8.70;;;;;;;21.41;100.00;98365.77;67790;1278;1017830;-71
2023/06/27 03:13:26;;;;;;;20.40;7.70;;;;;;;21.44;100.00;98364.79;67729;1278;1016387;-70
2023/06/27 03:16:29;;;;;;;20.90;7.70;;;;;;;21.36;100.00;98387.72;67835;1278;1016446;-71
2023/06/27 03:19:32;;;;;;;23.20;7.60;;;;;;;21.31;100.00;98387.15;67807;1278;1016416;-70
2023/06/27 03:22:34;;;;;;;22.50;8.30;;;;;;;21.36;100.00;98385.36;67805;1278;1017035;-70
2023/06/27 03:25:37;;;;;;;20.10;7.20;;;;;;;21.37;100.00;98386.69;67844;1278;1018645;-70
2023/06/27 03:28:40;;;;;;;20.70;7.40;;;;;;;21.40;100.00;98377.98;67762;1278;1016452;-71
2023/06/27 03:31:43;;;;;;;20.40;7.90;;;;;;;21.43;100.00;98375.83;67832;1278;1016496;-71
2023/06/27 03:34:47;;;;;;;20.50;7.30;;;;;;;21.56;100.00;98368.39;67806;1278;1018695;-72
2023/06/27 03:37:51;;;;;;;21.40;7.60;;;;;;;21.75;100.00;98366.98;67744;1278;1016722;-69
2023/06/27 03:40:54;;;;;;;19.30;7.20;;;;;;;21.71;100.00;98376.52;67804;1278;1016369;-71
2023/06/27 03:43:58;;;;;;;20.40;7.60;;;;;;;21.60;100.00;98378.10;67773;1278;1016418;-71
2023/06/27 03:47:00;;;;;;;19.90;7.60;;;;;;;21.61;100.00;98374.96;67817;1278;1016146;-66
2023/06/27 03:50:03;;;;;;;20.90;7.60;;;;;;;21.62;100.00;98377.66;67855;1278;1016521;-70
2023/06/27 03:53:07;;;;;;;20.50;7.90;;;;;;;21.67;100.00;98374.64;67800;1278;1016451;-70
2023/06/27 03:56:09;;;;;;;20.90;7.40;;;;;;;21.63;100.00;98377.72;67715;1278;1016370;-67
2023/06/27 03:59:12;;;;;;;20.10;8.40;;;;;;;21.70;100.00;98386.05;67796;1278;1016455;-69
2023/06/27 04:02:15;;;;;;;21.10;8.00;;;;;;;21.68;100.00;98393.00;67840;1278;1016576;-66
2023/06/27 04:05:18;;;;;;;21.40;8.30;;;;;;;21.73;100.00;98393.85;67818;1278;1016911;-64
2023/06/27 04:08:21;;;;;;;24.50;8.90;;;;;;;21.78;100.00;98393.41;67807;1278;1016448;-63
2023/06/27 04:11:24;;;;;;;20.10;8.20;;;;;;;21.72;100.00;98395.95;67832;1278;1016365;-63
2023/06/27 04:14:27;;;;;;;22.40;9.10;;;;;;;21.54;100.00;98396.37;67825;1278;1016482;-62
2023/06/27 04:17:30;;;;;;;22.20;8.90;;;;;;;21.52;100.00;98391.74;67783;1278;1016315;-66
2023/06/27 04:20:34;;;;;;;21.50;8.20;;;;;;;21.55;100.00;98392.24;67764;1278;1016381;-64
2023/06/27 04:23:36;;;;;;;23.10;8.80;;;;;;;21.62;100.00;98393.73;67823;1278;1016409;-68
2023/06/27 04:26:42;;;;;;;21.90;8.00;;;;;;;21.70;100.00;98391.70;67824;1278;1016582;-70
2023/06/27 04:29:45;;;;;;;20.70;8.40;;;;;;;21.81;100.00;98395.67;67768;1278;1016440;-70
2023/06/27 04:32:49;;;;;;;21.40;8.00;;;;;;;21.82;100.00;98392.83;67814;1278;1016205;-69
2023/06/27 04:35:54;;;;;;;23.00;8.20;;;;;;;21.91;100.00;98386.83;67858;1278;1016190;-70
2023/06/27 04:38:56;;;;;;;19.70;7.70;;;;;;;22.01;100.00;98389.10;67866;1278;1016523;-71
2023/06/27 04:41:59;;;;;;;21.20;8.10;;;;;;;21.95;100.00;98388.67;67815;1278;1016254;-70
2023/06/27 04:45:03;;;;;;;21.20;7.60;;;;;;;21.90;100.00;98391.93;67848;1278;1016433;-68
2023/06/27 04:48:06;;;;;;;20.60;7.80;;;;;;;21.80;100.00;98385.63;67817;1278;1016446;-70
2023/06/27 04:51:10;;;;;;;19.30;7.30;;;;;;;21.71;100.00;98393.60;67697;1278;1016385;-70
2023/06/27 04:54:12;;;;;;;19.80;7.10;;;;;;;21.66;100.00;98394.16;67827;1278;1016431;-63
2023/06/27 04:57:15;;;;;;;20.70;7.60;;;;;;;21.62;100.00;98396.53;67674;1278;1016340;-70
2023/06/27 05:00:19;;;;;;;20.00;7.10;;;;;;;21.70;100.00;98395.84;67806;1278;1016658;-62
2023/06/27 05:03:22;;;;;;;20.80;6.90;;;;;;;21.69;100.00;98396.23;67816;1278;1016509;-66
2023/06/27 05:06:25;;;;;;;18.60;7.00;;;;;;;21.76;100.00;98395.27;67864;1278;1016506;-67
2023/06/27 05:09:27;;;;;;;19.00;7.00;;;;;;;21.96;100.00;98397.14;67843;1278;1016237;-71
2023/06/27 05:12:30;;;;;;;18.90;7.00;;;;;;;21.98;100.00;98407.38;67838;1278;1016255;-70
2023/06/27 05:15:33;;;;;;;19.90;6.40;;;;;;;22.26;100.00;98409.19;67835;1278;1016477;-70
2023/06/27 05:18:36;;;;;;;17.80;5.80;;;;;;;22.25;100.00;98413.73;67859;1278;1016443;-70
2023/06/27 05:21:39;;;;;;;17.10;5.90;;;;;;;22.05;100.00;98431.85;67832;1278;1016520;-70
2023/06/27 05:24:42;;;;;;;20.30;5.80;;;;;;;21.96;100.00;98422.03;67811;1278;1018277;-67
2023/06/27 05:27:45;;;;;;;20.70;6.10;;;;;;;21.90;100.00;98426.67;67847;1278;1018591;-63
2023/06/27 05:30:48;;;;;;;17.90;5.70;;;;;;;21.92;100.00;98431.87;67820;1278;1016296;-63
2023/06/27 05:33:51;;;;;;;18.40;6.30;;;;;;;21.97;100.00;98436.39;67789;1278;1016391;-71
2023/06/27 05:36:53;;;;;;;19.30;5.40;;;;;;;22.03;100.00;98444.52;67794;1278;1019641;-69
2023/06/27 05:39:57;;;;;;;18.40;5.20;;;;;;;22.23;100.00;98449.23;67844;1278;1016275;-69
2023/06/27 05:43:01;;;;;;;20.60;5.50;;;;;;;22.39;99.22;98452.92;67825;1278;1016366;-70
2023/06/27 05:46:04;;;;;;;20.20;5.20;;;;;;;22.38;99.21;98454.08;67797;1278;1020096;-69
2023/06/27 05:49:08;;;;;;;23.30;6.10;;;;;;;22.13;99.41;98460.55;67861;1278;1016228;-64
2023/06/27 05:52:12;;;;;;;22.70;5.60;;;;;;;21.94;100.00;98457.33;67823;1278;1016714;-70
2023/06/27 05:55:15;;;;;;;22.20;5.60;;;;;;;21.94;100.00;98457.67;67853;1278;1016436;-63
2023/06/27 05:58:18;;;;;;;15.70;4.70;;;;;;;21.96;96.95;98471.90;67797;1278;1016175;-70
2023/06/27 06:01:21;;;;;;;17.50;4.60;;;;;;;21.71;96.05;98473.77;67855;1278;1016080;-68
2023/06/27 06:04:26;;;;;;;18.70;4.90;;;;;;;21.57;92.71;98471.10;67804;1278;1016450;-70
2023/06/27 06:07:29;;;;;;;17.20;4.50;;;;;;;21.70;94.07;98461.77;67857;1278;1016163;-70
2023/06/27 06:10:34;;;;;;;15.60;4.50;;;;;;;21.90;89.42;98462.38;67818;1278;1016302;-63
2023/06/27 06:13:37;;;;;;;18.00;4.30;;;;;;;22.02;86.06;98473.16;67849;1278;1016013;-72
2023/06/27 06:28:07;;;;;;;17.80;5.40;;;;;;;23.04;79.20;98473.98;132539;1307;557517;-64
2023/06/27 06:31:11;;;;;;;20.80;6.80;;;;;;;23.02;76.97;98479.45;134624;1287;208511;-62
2023/06/27 06:34:13;;;;;;;22.80;6.30;;;;;;;23.05;77.85;98481.89;134790;1288;22670;-65
2023/06/27 06:37:15;;;;;;;19.50;6.20;;;;;;;22.92;76.52;98489.03;134786;1288;22562;-65
2023/06/27 06:40:18;;;;;;;23.10;5.60;;;;;;;22.82;76.84;98489.25;134806;1288;22566;-65
2023/06/27 06:43:20;;;;;;;18.60;4.50;;;;;;;22.36;77.59;98498.30;134828;1266;22533;-64
2023/06/27 06:46:22;;;;;;;17.20;5.60;;;;;;;21.85;77.96;98504.55;134814;1288;23284;-64
2023/06/27 06:49:25;;;;;;;22.60;6.10;;;;;;;21.83;78.24;98511.77;134828;1288;22562;-64
2023/06/27 06:52:27;;;;;;;20.70;7.00;;;;;;;22.10;75.12;98512.80;135417;1281;22639;-64
2023/06/27 06:55:30;;;;;;;24.00;6.90;;;;;;;22.43;73.04;98507.29;135420;1280;22623;-64
2023/06/27 06:58:32;;;;;;;23.30;5.90;;;;;;;22.48;70.48;98518.18;135430;1281;22550;-64
2023/06/27 07:01:34;;;;;;;19.40;6.20;;;;;;;22.58;69.46;98513.41;135446;1281;22629;-64
2023/06/27 07:04:37;;;;;;;20.10;7.00;;;;;;;22.94;68.25;98506.23;135423;1281;22527;-65
2023/06/27 07:07:39;;;;;;;20.00;6.40;;;;;;;23.09;66.98;98502.69;135412;1281;22555;-64
2023/06/27 07:10:42;;;;;;;21.80;6.20;;;;;;;23.25;66.48;98507.97;135441;1281;22614;-65
2023/06/27 07:13:44;;;;;;;19.60;5.80;;;;;;;23.41;66.04;98511.01;135437;1281;25395;-64
2023/06/27 07:16:46;;;;;;;17.80;6.10;;;;;;;23.48;64.89;98510.00;135409;1281;22546;-64
2023/06/27 07:19:49;;;;;;;21.90;4.80;;;;;;;23.53;65.91;98512.30;135433;1280;22527;-64
2023/06/27 07:22:51;;;;;;;18.90;4.80;;;;;;;23.14;65.04;98524.75;135426;1280;25406;-64
2023/06/27 07:25:53;;;;;;;15.60;4.10;;;;;;;22.79;66.23;98525.07;135428;1281;25411;-64
2023/06/27 07:28:56;;;;;;;13.70;3.80;;;;;;;22.58;67.42;98525.92;135445;1281;23853;-64
2023/06/27 07:31:58;;;;;;;12.80;3.60;;;;;;;22.43;67.11;98530.27;135401;1281;22556;-64
2023/06/27 07:35:01;;;;;;;15.70;3.60;;;;;;;22.52;66.91;98523.80;135414;1281;22560;-63
2023/06/27 07:38:03;;;;;;;16.60;4.70;;;;;;;22.58;65.55;98528.40;135471;1281;22534;-64
2023/06/27 07:41:06;;;;;;;16.50;4.10;;;;;;;22.66;65.83;98536.44;135374;1281;22557;-64
2023/06/27 07:44:08;;;;;;;15.80;3.80;;;;;;;22.76;65.07;98521.17;135438;1281;22537;-64
2023/06/27 07:47:10;;;;;;;18.10;3.80;;;;;;;23.02;61.81;98534.46;135396;1281;22535;-64
2023/06/27 07:50:13;;;;;;;19.30;4.40;;;;;;;23.02;60.93;98519.20;135406;1281;22628;-64
2023/06/27 07:53:15;;;;;;;15.70;3.90;;;;;;;23.03;60.70;98512.00;135419;1281;22558;-64
2023/06/27 07:56:17;;;;;;;15.10;3.50;;;;;;;23.09;61.84;98511.21;135406;1281;22643;-64
2023/06/27 07:59:20;;;;;;;17.20;4.00;;;;;;;23.31;62.56;98502.96;135349;1281;22656;-64
2023/06/27 08:02:22;;;;;;;13.10;3.50;;;;;;;23.51;61.73;98503.98;135413;1281;22652;-65
2023/06/27 08:05:27;;;;;;;17.50;4.50;;;;;;;23.60;60.62;98510.40;135444;1273;22530;-64
2023/06/27 08:08:29;;;;;;;17.00;3.50;;;;;;;23.76;59.23;98521.37;135375;1281;22544;-64
2023/06/27 08:11:32;;;;;;;13.60;3.20;;;;;;;23.84;58.84;98515.38;135378;1281;22595;-65
2023/06/27 08:14:34;;;;;;;13.20;3.30;;;;;;;23.95;55.70;98523.11;135405;1281;22533;-65
2023/06/27 08:17:37;;;;;;;12.30;3.10;;;;;;;23.87;53.33;98543.73;135384;1281;23676;-64
2023/06/27 08:20:39;;;;;;;12.10;2.90;;;;;;;23.50;51.57;98549.80;135381;1263;22782;-65
2023/06/27 08:23:42;;;;;;;11.40;2.50;;;;;;;23.38;52.89;98542.83;135426;1281;22520;-65
2023/06/27 08:26:49;;;;;;;11.20;3.10;;;;;;;23.42;52.43;98552.65;135412;1281;22539;-65
2023/06/27 08:29:51;;;;;;;11.80;2.80;;;;;;;23.44;53.85;98533.13;135461;1281;22582;-64
2023/06/27 08:32:54;;;;;;;16.30;3.20;;;;;;;23.48;54.21;98543.27;135411;1281;22535;-65
2023/06/27 08:35:57;;;;;;;13.10;3.10;;;;;;;23.41;55.00;98535.70;135424;1281;23725;-65
2023/06/27 08:38:59;;;;;;;13.00;3.10;;;;;;;23.41;56.37;98534.20;135354;1281;22642;-65
2023/06/27 08:42:02;;;;;;;12.80;3.40;;;;;;;23.31;55.99;98546.75;135417;1281;22533;-64
2023/06/27 08:45:04;;;;;;;17.20;3.80;;;;;;;22.85;55.59;98556.02;135383;1281;22541;-64
2023/06/27 08:48:06;;;;;;;17.60;3.90;;;;;;;22.80;57.52;98547.95;135428;1281;22555;-65
2023/06/27 08:51:09;;;;;;;17.80;3.90;;;;;;;23.03;57.97;98550.27;135422;1281;22534;-64
2023/06/27 08:54:12;;;;;;;17.10;3.50;;;;;;;23.50;56.90;98539.47;135410;1281;25315;-64
2023/06/27 08:57:15;;;;;;;15.00;4.10;;;;;;;23.53;57.03;98542.59;135398;1280;23880;-64
2023/06/27 09:00:20;;;;;;;13.40;4.00;;;;;;;23.64;55.07;98547.16;135432;1280;24199;-64
2023/06/27 09:03:22;;;;;;;18.50;4.10;;;;;;;23.61;57.15;98546.91;135428;1280;25385;-63
2023/06/27 09:06:25;;;;;;;19.10;3.80;;;;;;;23.47;57.99;98549.41;135428;1280;23156;-64
2023/06/27 09:09:27;;;;;;;18.70;3.90;;;;;;;23.27;58.27;98552.90;135412;1281;26001;-64
2023/06/27 09:12:29;;;;;;;17.30;3.90;;;;;;;23.28;59.59;98551.23;135411;1281;22628;-64
2023/06/27 09:15:32;;;;;;;17.30;4.20;;;;;;;23.43;58.34;98545.78;135410;1280;22544;-64
2023/06/27 09:18:34;;;;;;;19.40;4.40;;;;;;;23.62;56.29;98547.41;135415;1280;22556;-64
2023/06/27 09:21:37;;;;;;;13.20;3.30;;;;;;;23.81;54.74;98549.12;135366;1280;22530;-64
2023/06/27 09:24:41;;;;;;;25.30;5.60;;;;;;;23.87;54.52;98551.07;135423;1280;22564;-64
2023/06/27 09:27:44;;;;;;;13.10;3.30;;;;;;;23.82;53.26;98555.02;135369;1280;22534;-64
2023/06/27 09:30:46;;;;;;;16.80;3.40;;;;;;;23.98;50.03;98557.58;135354;1280;22536;-64
2023/06/27 09:33:49;;;;;;;19.70;3.40;;;;;;;24.31;50.51;98556.06;135393;1280;22553;-64
2023/06/27 09:36:51;;;;;;;16.00;3.60;;;;;;;24.29;49.50;98556.91;135410;1280;22561;-62
2023/06/27 09:39:53;;;;;;;13.30;3.40;;;;;;;24.39;49.37;98561.93;135412;1280;22540;-63
2023/06/27 09:42:56;;;;;;;12.50;3.00;;;;;;;24.41;49.57;98558.27;135397;1280;24225;-63
2023/06/27 09:45:59;;;;;;;15.40;3.60;;;;;;;24.35;49.48;98554.52;135382;1280;22553;-63
2023/06/27 09:49:01;;;;;;;19.00;3.90;;;;;;;24.08;50.23;98559.55;135377;1280;22548;-62
2023/06/27 09:52:04;;;;;;;18.40;3.50;;;;;;;24.14;51.86;98560.48;135402;1280;22575;-63
2023/06/27 09:55:06;;;;;;;19.70;3.80;;;;;;;24.39;50.50;98562.30;135378;1273;22550;-63
2023/06/27 09:58:08;;;;;;;14.50;3.70;;;;;;;24.67;49.03;98556.55;135411;1280;22543;-63
2023/06/27 10:01:11;;;;;;;11.90;3.10;;;;;;;24.81;48.57;98563.05;135418;1280;22538;-63
2023/06/27 10:04:13;;;;;;;14.70;3.00;;;;;;;24.91;46.94;98568.25;135383;1280;25233;-63
2023/06/27 10:07:15;;;;;;;15.60;3.50;;;;;;;24.92;47.12;98551.65;135379;1280;25402;-63
2023/06/27 10:10:18;;;;;;;17.00;3.50;;;;;;;24.84;47.30;98553.55;135434;1281;23792;-63
2023/06/27 10:13:20;;;;;;;12.30;3.40;;;;;;;24.59;45.96;98565.74;135361;1280;25465;-63
2023/06/27 10:16:23;;;;;;;17.50;3.40;;;;;;;24.15;45.20;98571.46;135417;1280;22572;-63
2023/06/27 10:19:25;;;;;;;10.10;2.80;;;;;;;23.87;46.69;98573.88;135397;1280;22541;-63
2023/06/27 10:22:29;;;;;;;13.40;2.90;;;;;;;23.72;46.27;98574.66;135410;1280;22527;-63
2023/06/27 10:25:31;;;;;;;14.90;3.50;;;;;;;23.58;45.70;98570.63;135441;1263;22579;-63
2023/06/27 10:28:34;;;;;;;12.30;2.70;;;;;;;23.37;45.19;98577.17;135381;1263;22537;-63
2023/06/27 10:31:36;;;;;;;10.60;2.50;;;;;;;23.18;46.34;98574.79;135602;1279;22561;-63
2023/06/27 10:34:38;;;;;;;10.70;2.80;;;;;;;23.11;47.00;98569.11;135668;1279;22552;-64
2023/06/27 10:37:42;;;;;;;11.90;3.10;;;;;;;23.17;48.21;98570.45;135613;1279;22546;-63
2023/06/27 10:40:44;;;;;;;13.60;2.80;;;;;;;23.10;47.45;98566.20;135606;1279;22530;-62
2023/06/27 10:43:47;;;;;;;14.00;2.90;;;;;;;23.05;46.64;98568.39;135662;1279;22646;-62
2023/06/27 10:46:49;;;;;;;15.40;3.00;;;;;;;23.08;45.84;98569.12;135623;1279;25440;-62
2023/06/27 10:49:51;;;;;;;11.80;3.10;;;;;;;23.61;45.65;98563.86;135580;1279;22537;-63
2023/06/27 10:52:54;;;;;;;14.80;3.10;;;;;;;24.50;45.09;98559.25;135634;1279;22557;-63
2023/06/27 10:55:56;;;;;;;13.00;2.70;;;;;;;25.06;43.29;98560.02;135670;1279;22546;-62
2023/06/27 10:58:59;;;;;;;10.40;2.60;;;;;;;25.50;43.15;98551.58;135542;1279;23792;-64
2023/06/27 11:02:02;;;;;;;13.60;3.00;;;;;;;25.31;42.14;98553.33;135601;1279;22561;-63
2023/06/27 11:05:04;;;;;;;16.70;3.40;;;;;;;24.54;42.59;98569.77;135655;1279;22526;-63
2023/06/27 11:08:07;;;;;;;19.40;3.20;;;;;;;24.01;43.58;98581.01;135672;1279;22680;-63
2023/06/27 11:11:09;;;;;;;18.40;3.00;;;;;;;23.61;43.29;98579.02;135653;1279;23215;-63
2023/06/27 11:14:12;;;;;;;12.10;2.20;;;;;;;23.35;42.02;98594.65;135628;1279;23090;-63
2023/06/27 11:17:14;;;;;;;14.30;3.60;;;;;;;23.07;41.78;98586.59;135671;1279;22649;-63
2023/06/27 11:20:17;;;;;;;19.40;3.10;;;;;;;23.40;42.58;98587.93;135659;1279;22534;-64
2023/06/27 11:23:20;;;;;;;10.60;2.70;;;;;;;23.77;42.02;98576.04;135577;1260;22569;-64
2023/06/27 11:26:22;;;;;;;9.40;2.10;;;;;;;24.44;41.26;98557.73;135628;1279;22549;-63
2023/06/27 11:29:27;;;;;;;10.30;2.80;;;;;;;25.16;40.40;98552.17;135672;1279;22540;-63
2023/06/27 11:32:29;;;;;;;18.20;3.30;;;;;;;25.83;39.88;98541.30;135650;1257;24202;-63
2023/06/27 11:35:32;;;;;;;12.30;2.70;;;;;;;25.67;39.37;98545.76;135677;1279;22555;-63
2023/06/27 11:38:34;;;;;;;13.50;2.70;;;;;;;25.18;39.15;98553.58;135663;1257;22536;-64
2023/06/27 11:41:37;;;;;;;13.50;2.50;;;;;;;24.81;39.52;98540.89;135593;1279;24269;-63
2023/06/27 11:44:39;;;;;;;13.10;2.60;;;;;;;24.54;40.62;98534.67;135612;1279;22560;-64
2023/06/27 11:47:41;;;;;;;11.50;2.80;;;;;;;24.43;40.86;98532.46;135622;1279;22523;-63
2023/06/27 11:50:44;;;;;;;23.60;3.60;;;;;;;24.64;40.64;98533.63;135591;1279;22585;-63
2023/06/27 11:53:46;;;;;;;17.40;2.90;;;;;;;25.34;39.75;98530.09;135607;1279;22521;-63
2023/06/27 11:56:49;;;;;;;9.40;2.40;;;;;;;26.12;38.93;98513.45;135609;1279;22556;-64
2023/06/27 11:59:51;;;;;;;8.50;2.20;;;;;;;26.60;36.80;98511.86;135638;1261;25448;-65
2023/06/27 12:02:53;;;;;;;10.50;2.30;;;;;;;26.74;35.41;98521.48;135624;1279;22550;-63
2023/06/27 12:05:57;;;;;;;10.80;2.10;;;;;;;25.97;34.35;98532.45;135635;1279;22549;-63
2023/06/27 12:08:59;;;;;;;13.20;2.40;;;;;;;25.48;32.94;98536.34;135616;1277;22559;-64
2023/06/27 12:12:03;;;;;;;7.00;2.50;;;;;;;25.22;35.38;98518.61;135586;1279;22555;-64
2023/06/27 12:15:06;;;;;;;10.00;2.10;;;;;;;26.08;34.73;98516.67;135617;1277;22522;-63
2023/06/27 12:18:08;;;;;;;11.20;2.50;;;;;;;26.63;34.38;98499.83;135622;1279;22553;-63
2023/06/27 12:21:10;;;;;;;10.70;2.40;;;;;;;26.92;32.50;98495.43;135642;1279;22544;-63
2023/06/27 12:24:13;;;;;;;11.90;1.90;;;;;;;27.13;32.79;98499.39;135647;1279;22631;-63
2023/06/27 12:27:16;;;;;;;13.30;2.50;;;;;;;26.98;34.76;98485.83;135621;1279;22549;-64
2023/06/27 12:30:18;;;;;;;15.80;2.40;;;;;;;27.10;34.50;98483.04;135610;1261;22541;-63
2023/06/27 12:33:21;;;;;;;15.60;2.60;;;;;;;26.97;33.81;98483.76;135599;1262;22999;-63
2023/06/27 12:36:24;;;;;;;14.50;2.60;;;;;;;26.24;34.28;98486.84;135623;1279;22643;-63
2023/06/27 12:39:26;;;;;;;16.70;3.00;;;;;;;25.84;35.51;98480.52;135608;1279;22614;-63
2023/06/27 12:42:28;;;;;;;11.00;2.70;;;;;;;25.86;35.85;98494.05;135612;1279;22547;-63
2023/06/27 12:45:32;;;;;;;11.10;2.50;;;;;;;25.89;37.24;98486.63;135649;1279;23240;-63
2023/06/27 12:48:34;;;;;;;9.40;2.20;;;;;;;26.80;36.20;98487.34;135636;1279;22538;-63
2023/06/27 12:51:36;;;;;;;11.70;2.50;;;;;;;27.22;34.71;98484.60;135667;1279;22538;-63
2023/06/27 12:54:39;;;;;;;11.50;2.80;;;;;;;27.12;34.27;98489.33;135672;1279;22534;-63
2023/06/27 12:57:44;;;;;;;15.80;2.50;;;;;;;27.11;33.23;98490.15;135634;1279;22554;-63
2023/06/27 13:00:46;;;;;;;6.70;1.90;;;;;;;26.95;33.44;98473.32;135605;1279;22642;-63
2023/06/27 13:03:49;;;;;;;10.20;2.20;;;;;;;26.75;34.17;98478.77;135692;1279;22534;-63
2023/06/27 13:06:51;;;;;;;9.30;2.20;;;;;;;25.95;35.97;98502.41;135668;1279;22541;-63
2023/06/27 13:09:54;;;;;;;16.60;2.70;;;;;;;25.20;37.80;98496.30;135703;1279;24585;-63
2023/06/27 13:12:57;;;;;;;10.80;2.50;;;;;;;24.86;39.11;98489.65;135639;1279;25343;-63
2023/06/27 13:15:59;;;;;;;16.70;3.10;;;;;;;24.81;39.33;98491.10;135682;1279;23013;-63
2023/06/27 13:19:07;;;;;;;10.10;2.60;;;;;;;24.54;39.13;98493.63;135628;1279;22564;-63
2023/06/27 13:22:09;;;;;;;12.00;2.30;;;;;;;24.42;39.21;98495.46;135633;1279;22560;-63
2023/06/27 13:25:12;;;;;;;10.00;2.30;;;;;;;24.95;39.17;98493.72;135678;1279;22527;-63
2023/06/27 13:28:14;;;;;;;13.10;2.80;;;;;;;25.71;37.17;98490.49;135681;1279;22554;-63
2023/06/27 13:31:16;;;;;;;12.20;2.60;;;;;;;26.22;35.59;98476.66;135679;1279;22524;-63
2023/06/27 13:34:20;;;;;;;12.10;2.50;;;;;;;26.11;35.48;98471.67;135671;1279;22583;-63
2023/06/27 13:37:22;;;;;;;10.80;2.30;;;;;;;25.50;37.02;98477.22;135658;1279;22540;-63
2023/06/27 13:40:25;;;;;;;9.60;2.40;;;;;;;24.81;37.94;98487.73;135611;1278;24470;-63
2023/06/27 14:53:42;;;;;;;9.40;2.40;;;;;;;23.45;44.77;98535.45;131494;1310;558577;-72
2023/06/27 14:56:45;;;;;;;17.20;3.50;;;;;;;23.54;42.73;98539.35;130400;1293;5318690;-72
2023/06/27 14:59:47;;;;;;;13.20;2.60;;;;;;;22.97;42.69;98539.33;134515;1292;22576;-72
2023/06/27 15:02:50;;;;;;;12.70;3.40;;;;;;;22.70;43.12;98522.40;134526;1292;23323;-72
2023/06/27 15:05:53;;;;;;;14.50;5.50;;;;;;;22.56;44.16;98520.40;134511;1292;25737;-70
2023/06/27 15:08:58;;;;;;;16.50;3.50;;;;;;;22.46;44.49;98524.27;134557;1292;25412;-67
2023/06/27 15:12:00;;;;;;;13.00;2.50;;;;;;;22.46;45.09;98525.81;134918;1286;22545;-67
2023/06/27 15:15:04;;;;;;;9.30;2.90;;;;;;;22.46;45.79;98521.61;134933;1286;24044;-69